aviador You're here:

KMHT Decoded Metar

MANCHESTER in NH, USA
Report Time2017-11-23 19:53:00
UTC Time2017-11-23 20:26:24
Flight Rules vfr VFR
Wind340° at 05 kt
W.Decomp.*RWY 35: 5.0 kt HW 0.5 kt RCW
RWY 06: 2.2 kt HW 4.5 kt LCW
W.Rank340° ranks 5
Current wind is below 340° avg. (7.4)
Visibility9999 m
Phenomena:N/A
Clouds:Broken 200 Hf
Broken 250 Hf
Expected CloudBase > 6,000 ft AGL from Temp-Dew spread
Ceiling20,000 ft
Temp04°C (ISA -10)
Dew Point-11°C (33% RH)
AAT-0.9°C
QNH1014 hPa
Density Alt-997 ft
Elevation266 ft
Report Wrong Elevation
Raw Report
KMHT 231953Z 34005KT 10SM BKN200 BKN250 04/M11 A2995 RMK AO2
SLP160 T00391106=

Extra information for KMHT:More info

Metar Taf Metar & Taf Last 4 Metars F.Rules Stats Wind Profile Meteogram Temp Stats Airport Information Weather charts Add Link Nearby VenuesMetar ALERT Operation Metar Decoded Social comments

AIRNAV info for KMHT